sensor_id;sensor_type;location;lat;lon;timestamp;P1;durP1;ratioP1;P2;durP2;ratioP2
10309;SDS011;5200;43.236;27.986;2023-02-15T00:00:10;11.10;;;7.60;;
10309;SDS011;5200;43.236;27.986;2023-02-15T00:02:37;8.60;;;6.27;;
10309;SDS011;5200;43.236;27.986;2023-02-15T00:05:04;12.53;;;7.70;;
10309;SDS011;5200;43.236;27.986;2023-02-15T00:07:33;17.47;;;8.27;;
10309;SDS011;5200;43.236;27.986;2023-02-15T00:10:00;11.80;;;7.77;;
10309;SDS011;5200;43.236;27.986;2023-02-15T00:12:26;12.33;;;8.27;;
10309;SDS011;5200;43.236;27.986;2023-02-15T00:14:53;10.60;;;7.33;;
10309;SDS011;5200;43.236;27.986;2023-02-15T00:17:20;12.87;;;8.43;;
10309;SDS011;5200;43.236;27.986;2023-02-15T00:19:47;13.70;;;7.63;;
10309;SDS011;5200;43.236;27.986;2023-02-15T00:22:14;11.73;;;8.57;;
10309;SDS011;5200;43.236;27.986;2023-02-15T00:24:42;9.77;;;7.40;;
10309;SDS011;5200;43.236;27.986;2023-02-15T00:27:09;12.57;;;7.37;;
10309;SDS011;5200;43.236;27.986;2023-02-15T00:29:36;16.20;;;9.87;;
10309;SDS011;5200;43.236;27.986;2023-02-15T00:32:02;16.17;;;8.90;;
10309;SDS011;5200;43.236;27.986;2023-02-15T00:34:29;12.07;;;7.97;;
10309;SDS011;5200;43.236;27.986;2023-02-15T00:36:56;15.27;;;8.70;;
10309;SDS011;5200;43.236;27.986;2023-02-15T00:39:23;16.00;;;9.40;;
10309;SDS011;5200;43.236;27.986;2023-02-15T00:41:53;12.37;;;8.67;;
10309;SDS011;5200;43.236;27.986;2023-02-15T00:44:20;12.37;;;8.37;;
10309;SDS011;5200;43.236;27.986;2023-02-15T00:46:47;10.80;;;7.43;;
10309;SDS011;5200;43.236;27.986;2023-02-15T00:49:14;13.67;;;8.73;;
10309;SDS011;5200;43.236;27.986;2023-02-15T00:51:41;12.17;;;7.53;;
10309;SDS011;5200;43.236;27.986;2023-02-15T00:54:08;12.50;;;8.43;;
10309;SDS011;5200;43.236;27.986;2023-02-15T00:56:34;11.07;;;7.90;;
10309;SDS011;5200;43.236;27.986;2023-02-15T00:59:03;11.87;;;8.03;;
10309;SDS011;5200;43.236;27.986;2023-02-15T01:01:30;11.03;;;7.37;;
10309;SDS011;5200;43.236;27.986;2023-02-15T01:03:56;14.60;;;8.93;;
10309;SDS011;5200;43.236;27.986;2023-02-15T01:06:23;18.10;;;8.23;;
10309;SDS011;5200;43.236;27.986;2023-02-15T01:08:50;8.73;;;6.17;;
10309;SDS011;5200;43.236;27.986;2023-02-15T01:11:17;14.37;;;8.57;;
10309;SDS011;5200;43.236;27.986;2023-02-15T01:13:47;14.00;;;7.80;;
10309;SDS011;5200;43.236;27.986;2023-02-15T01:16:15;11.93;;;8.57;;
10309;SDS011;5200;43.236;27.986;2023-02-15T01:18:42;14.03;;;8.77;;
10309;SDS011;5200;43.236;27.986;2023-02-15T01:21:10;12.07;;;8.03;;
10309;SDS011;5200;43.236;27.986;2023-02-15T01:23:39;12.20;;;8.10;;
10309;SDS011;5200;43.236;27.986;2023-02-15T01:26:06;9.47;;;6.83;;
10309;SDS011;5200;43.236;27.986;2023-02-15T01:28:33;14.83;;;8.43;;
10309;SDS011;5200;43.236;27.986;2023-02-15T01:31:04;15.97;;;9.13;;
10309;SDS011;5200;43.236;27.986;2023-02-15T01:33:33;12.97;;;8.17;;
10309;SDS011;5200;43.236;27.986;2023-02-15T01:36:01;14.33;;;8.47;;
10309;SDS011;5200;43.236;27.986;2023-02-15T01:38:28;12.23;;;7.93;;
10309;SDS011;5200;43.236;27.986;2023-02-15T01:40:55;18.30;;;8.70;;
10309;SDS011;5200;43.236;27.986;2023-02-15T01:43:44;13.60;;;8.80;;
10309;SDS011;5200;43.236;27.986;2023-02-15T01:46:12;13.60;;;8.10;;
10309;SDS011;5200;43.236;27.986;2023-02-15T01:48:45;15.33;;;8.63;;
10309;SDS011;5200;43.236;27.986;2023-02-15T01:51:14;13.40;;;8.43;;
10309;SDS011;5200;43.236;27.986;2023-02-15T01:53:47;16.20;;;9.57;;
10309;SDS011;5200;43.236;27.986;2023-02-15T01:56:19;12.27;;;8.53;;
10309;SDS011;5200;43.236;27.986;2023-02-15T01:58:48;16.67;;;9.43;;
10309;SDS011;5200;43.236;27.986;2023-02-15T02:01:17;11.03;;;7.47;;
10309;SDS011;5200;43.236;27.986;2023-02-15T02:03:49;12.03;;;8.80;;
10309;SDS011;5200;43.236;27.986;2023-02-15T02:06:22;12.33;;;8.30;;
10309;SDS011;5200;43.236;27.986;2023-02-15T02:08:50;12.13;;;8.17;;
10309;SDS011;5200;43.236;27.986;2023-02-15T02:11:18;17.33;;;9.20;;
10309;SDS011;5200;43.236;27.986;2023-02-15T02:13:45;14.10;;;8.70;;
10309;SDS011;5200;43.236;27.986;2023-02-15T02:16:13;12.20;;;8.30;;
10309;SDS011;5200;43.236;27.986;2023-02-15T02:18:49;13.40;;;8.37;;
10309;SDS011;5200;43.236;27.986;2023-02-15T02:24:41;12.70;;;8.50;;
10309;SDS011;5200;43.236;27.986;2023-02-15T02:27:33;14.97;;;8.60;;
10309;SDS011;5200;43.236;27.986;2023-02-15T02:30:16;12.57;;;8.03;;
10309;SDS011;5200;43.236;27.986;2023-02-15T02:35:47;13.97;;;7.93;;
10309;SDS011;5200;43.236;27.986;2023-02-15T02:38:22;9.93;;;6.27;;
10309;SDS011;5200;43.236;27.986;2023-02-15T02:40:55;14.27;;;9.07;;
10309;SDS011;5200;43.236;27.986;2023-02-15T02:43:33;14.83;;;7.60;;
10309;SDS011;5200;43.236;27.986;2023-02-15T02:46:05;13.83;;;7.73;;
10309;SDS011;5200;43.236;27.986;2023-02-15T02:48:40;11.93;;;7.87;;
10309;SDS011;5200;43.236;27.986;2023-02-15T02:51:06;11.93;;;7.60;;
10309;SDS011;5200;43.236;27.986;2023-02-15T02:53:33;12.23;;;7.43;;
10309;SDS011;5200;43.236;27.986;2023-02-15T02:56:03;16.17;;;8.70;;
10309;SDS011;5200;43.236;27.986;2023-02-15T02:58:34;18.70;;;8.77;;
10309;SDS011;5200;43.236;27.986;2023-02-15T03:01:06;11.00;;;7.33;;
10309;SDS011;5200;43.236;27.986;2023-02-15T03:03:41;13.07;;;8.10;;
10309;SDS011;5200;43.236;27.986;2023-02-15T03:06:12;12.37;;;8.20;;
10309;SDS011;5200;43.236;27.986;2023-02-15T03:08:44;11.33;;;7.63;;
10309;SDS011;5200;43.236;27.986;2023-02-15T03:11:17;16.53;;;8.17;;
10309;SDS011;5200;43.236;27.986;2023-02-15T03:13:44;10.53;;;7.10;;
10309;SDS011;5200;43.236;27.986;2023-02-15T03:16:13;15.27;;;8.20;;
10309;SDS011;5200;43.236;27.986;2023-02-15T03:18:55;17.73;;;9.47;;
10309;SDS011;5200;43.236;27.986;2023-02-15T03:21:28;14.43;;;8.87;;
10309;SDS011;5200;43.236;27.986;2023-02-15T03:24:00;15.23;;;8.13;;
10309;SDS011;5200;43.236;27.986;2023-02-15T03:26:33;14.27;;;7.30;;
10309;SDS011;5200;43.236;27.986;2023-02-15T03:29:02;11.00;;;6.80;;
10309;SDS011;5200;43.236;27.986;2023-02-15T03:31:31;13.00;;;7.60;;
10309;SDS011;5200;43.236;27.986;2023-02-15T03:34:06;10.97;;;5.70;;
10309;SDS011;5200;43.236;27.986;2023-02-15T03:36:37;13.83;;;8.00;;
10309;SDS011;5200;43.236;27.986;2023-02-15T03:39:11;13.83;;;7.93;;
10309;SDS011;5200;43.236;27.986;2023-02-15T03:41:45;7.73;;;5.33;;
10309;SDS011;5200;43.236;27.986;2023-02-15T03:44:17;13.10;;;8.17;;
10309;SDS011;5200;43.236;27.986;2023-02-15T03:46:49;12.00;;;7.37;;
10309;SDS011;5200;43.236;27.986;2023-02-15T03:49:24;13.90;;;6.93;;
10309;SDS011;5200;43.236;27.986;2023-02-15T03:51:55;12.93;;;8.33;;
10309;SDS011;5200;43.236;27.986;2023-02-15T03:54:25;9.93;;;6.90;;
10309;SDS011;5200;43.236;27.986;2023-02-15T03:57:11;12.13;;;7.70;;
10309;SDS011;5200;43.236;27.986;2023-02-15T03:59:57;12.23;;;8.10;;
10309;SDS011;5200;43.236;27.986;2023-02-15T04:02:44;12.83;;;8.13;;
10309;SDS011;5200;43.236;27.986;2023-02-15T04:05:23;17.27;;;8.33;;
10309;SDS011;5200;43.236;27.986;2023-02-15T04:07:50;12.73;;;8.00;;
10309;SDS011;5200;43.236;27.986;2023-02-15T04:10:19;14.43;;;8.10;;
10309;SDS011;5200;43.236;27.986;2023-02-15T04:13:03;12.03;;;7.33;;
10309;SDS011;5200;43.236;27.986;2023-02-15T04:15:30;13.90;;;8.93;;
10309;SDS011;5200;43.236;27.986;2023-02-15T04:18:22;12.70;;;8.07;;
10309;SDS011;5200;43.236;27.986;2023-02-15T04:21:08;10.87;;;7.20;;
10309;SDS011;5200;43.236;27.986;2023-02-15T04:23:52;16.17;;;7.87;;
10309;SDS011;5200;43.236;27.986;2023-02-15T04:26:36;15.27;;;7.70;;
10309;SDS011;5200;43.236;27.986;2023-02-15T04:29:03;11.83;;;7.80;;
10309;SDS011;5200;43.236;27.986;2023-02-15T04:31:30;14.07;;;8.83;;
10309;SDS011;5200;43.236;27.986;2023-02-15T04:33:57;16.57;;;8.83;;
10309;SDS011;5200;43.236;27.986;2023-02-15T04:36:25;13.43;;;8.30;;
10309;SDS011;5200;43.236;27.986;2023-02-15T04:38:52;13.50;;;7.97;;
10309;SDS011;5200;43.236;27.986;2023-02-15T04:41:18;13.03;;;8.47;;
10309;SDS011;5200;43.236;27.986;2023-02-15T04:43:45;13.03;;;9.10;;
10309;SDS011;5200;43.236;27.986;2023-02-15T04:46:12;13.80;;;9.07;;
10309;SDS011;5200;43.236;27.986;2023-02-15T04:48:39;13.33;;;8.63;;
10309;SDS011;5200;43.236;27.986;2023-02-15T04:51:06;15.07;;;8.50;;
10309;SDS011;5200;43.236;27.986;2023-02-15T04:53:35;16.87;;;9.00;;
10309;SDS011;5200;43.236;27.986;2023-02-15T04:56:02;14.73;;;9.10;;
10309;SDS011;5200;43.236;27.986;2023-02-15T04:58:29;13.67;;;9.80;;
10309;SDS011;5200;43.236;27.986;2023-02-15T05:00:56;14.67;;;10.70;;
10309;SDS011;5200;43.236;27.986;2023-02-15T05:03:24;20.27;;;10.27;;
10309;SDS011;5200;43.236;27.986;2023-02-15T05:05:51;13.53;;;9.53;;
10309;SDS011;5200;43.236;27.986;2023-02-15T05:08:18;14.80;;;8.00;;
10309;SDS011;5200;43.236;27.986;2023-02-15T05:10:47;13.90;;;8.37;;
10309;SDS011;5200;43.236;27.986;2023-02-15T05:13:14;15.70;;;8.50;;
10309;SDS011;5200;43.236;27.986;2023-02-15T05:15:40;11.80;;;8.23;;
10309;SDS011;5200;43.236;27.986;2023-02-15T05:18:07;14.23;;;8.77;;
10309;SDS011;5200;43.236;27.986;2023-02-15T05:20:34;18.30;;;9.00;;
10309;SDS011;5200;43.236;27.986;2023-02-15T05:23:01;12.50;;;9.10;;
10309;SDS011;5200;43.236;27.986;2023-02-15T05:25:28;12.27;;;8.07;;
10309;SDS011;5200;43.236;27.986;2023-02-15T05:28:13;15.10;;;9.50;;
10309;SDS011;5200;43.236;27.986;2023-02-15T05:30:45;15.53;;;8.83;;
10309;SDS011;5200;43.236;27.986;2023-02-15T05:33:13;18.00;;;10.03;;
10309;SDS011;5200;43.236;27.986;2023-02-15T05:35:40;14.40;;;9.07;;
10309;SDS011;5200;43.236;27.986;2023-02-15T05:38:06;12.03;;;8.27;;
10309;SDS011;5200;43.236;27.986;2023-02-15T05:40:34;14.80;;;8.60;;
10309;SDS011;5200;43.236;27.986;2023-02-15T05:43:01;15.23;;;8.93;;
10309;SDS011;5200;43.236;27.986;2023-02-15T05:45:29;14.80;;;9.27;;
10309;SDS011;5200;43.236;27.986;2023-02-15T05:47:56;11.00;;;7.73;;
10309;SDS011;5200;43.236;27.986;2023-02-15T05:50:24;14.87;;;8.53;;
10309;SDS011;5200;43.236;27.986;2023-02-15T05:52:51;15.20;;;9.50;;
10309;SDS011;5200;43.236;27.986;2023-02-15T05:55:18;16.17;;;7.97;;
10309;SDS011;5200;43.236;27.986;2023-02-15T05:57:45;13.07;;;8.50;;
10309;SDS011;5200;43.236;27.986;2023-02-15T06:00:12;15.90;;;8.90;;
10309;SDS011;5200;43.236;27.986;2023-02-15T06:02:41;17.97;;;9.80;;
10309;SDS011;5200;43.236;27.986;2023-02-15T06:05:08;12.37;;;7.87;;
10309;SDS011;5200;43.236;27.986;2023-02-15T06:07:35;15.50;;;9.50;;
10309;SDS011;5200;43.236;27.986;2023-02-15T06:10:02;11.17;;;7.13;;
10309;SDS011;5200;43.236;27.986;2023-02-15T06:12:29;13.03;;;7.63;;
10309;SDS011;5200;43.236;27.986;2023-02-15T06:14:56;12.33;;;8.93;;
10309;SDS011;5200;43.236;27.986;2023-02-15T06:17:23;12.50;;;7.30;;
10309;SDS011;5200;43.236;27.986;2023-02-15T06:19:51;9.30;;;6.57;;
10309;SDS011;5200;43.236;27.986;2023-02-15T06:22:18;14.83;;;8.43;;
10309;SDS011;5200;43.236;27.986;2023-02-15T06:24:45;19.07;;;8.67;;
10309;SDS011;5200;43.236;27.986;2023-02-15T06:27:12;11.83;;;8.10;;
10309;SDS011;5200;43.236;27.986;2023-02-15T06:29:39;16.00;;;8.47;;
10309;SDS011;5200;43.236;27.986;2023-02-15T06:32:18;12.80;;;8.23;;
10309;SDS011;5200;43.236;27.986;2023-02-15T06:34:44;11.40;;;7.63;;
10309;SDS011;5200;43.236;27.986;2023-02-15T06:37:13;11.77;;;7.27;;
10309;SDS011;5200;43.236;27.986;2023-02-15T06:39:39;13.57;;;7.82;;
10309;SDS011;5200;43.236;27.986;2023-02-15T06:42:07;12.70;;;7.80;;
10309;SDS011;5200;43.236;27.986;2023-02-15T06:44:34;12.23;;;7.87;;
10309;SDS011;5200;43.236;27.986;2023-02-15T06:47:01;10.87;;;6.93;;
10309;SDS011;5200;43.236;27.986;2023-02-15T06:49:27;12.03;;;7.23;;
10309;SDS011;5200;43.236;27.986;2023-02-15T06:51:54;11.53;;;6.73;;
10309;SDS011;5200;43.236;27.986;2023-02-15T06:54:22;8.77;;;5.95;;
10309;SDS011;5200;43.236;27.986;2023-02-15T06:56:49;7.43;;;6.07;;
10309;SDS011;5200;43.236;27.986;2023-02-15T06:59:16;6.78;;;4.75;;
10309;SDS011;5200;43.236;27.986;2023-02-15T07:01:43;10.07;;;6.35;;
10309;SDS011;5200;43.236;27.986;2023-02-15T07:04:09;11.20;;;6.07;;
10309;SDS011;5200;43.236;27.986;2023-02-15T07:06:36;12.75;;;6.70;;
10309;SDS011;5200;43.236;27.986;2023-02-15T07:09:03;10.38;;;5.68;;
10309;SDS011;5200;43.236;27.986;2023-02-15T07:11:31;7.63;;;5.35;;
10309;SDS011;5200;43.236;27.986;2023-02-15T07:14:16;10.43;;;6.80;;
10309;SDS011;5200;43.236;27.986;2023-02-15T07:16:43;10.03;;;7.20;;
10309;SDS011;5200;43.236;27.986;2023-02-15T07:19:09;13.65;;;6.60;;
10309;SDS011;5200;43.236;27.986;2023-02-15T07:21:36;8.83;;;6.10;;
10309;SDS011;5200;43.236;27.986;2023-02-15T07:24:03;9.68;;;5.82;;
10309;SDS011;5200;43.236;27.986;2023-02-15T07:26:32;8.20;;;6.38;;
10309;SDS011;5200;43.236;27.986;2023-02-15T07:28:59;9.73;;;6.93;;
10309;SDS011;5200;43.236;27.986;2023-02-15T07:31:26;11.93;;;5.93;;
10309;SDS011;5200;43.236;27.986;2023-02-15T07:33:52;10.18;;;5.53;;
10309;SDS011;5200;43.236;27.986;2023-02-15T07:36:19;10.85;;;6.68;;
10309;SDS011;5200;43.236;27.986;2023-02-15T07:38:46;10.57;;;5.97;;
10309;SDS011;5200;43.236;27.986;2023-02-15T07:41:13;9.68;;;6.68;;
10309;SDS011;5200;43.236;27.986;2023-02-15T07:43:42;9.60;;;5.60;;
10309;SDS011;5200;43.236;27.986;2023-02-15T07:46:11;8.05;;;5.53;;
10309;SDS011;5200;43.236;27.986;2023-02-15T07:48:40;8.80;;;5.47;;
10309;SDS011;5200;43.236;27.986;2023-02-15T07:51:08;6.17;;;5.33;;
10309;SDS011;5200;43.236;27.986;2023-02-15T07:53:37;8.57;;;4.63;;
10309;SDS011;5200;43.236;27.986;2023-02-15T07:56:05;5.93;;;4.63;;
10309;SDS011;5200;43.236;27.986;2023-02-15T07:58:33;9.00;;;5.67;;
10309;SDS011;5200;43.236;27.986;2023-02-15T08:01:24;12.43;;;7.00;;
10309;SDS011;5200;43.236;27.986;2023-02-15T08:03:53;9.02;;;6.22;;
10309;SDS011;5200;43.236;27.986;2023-02-15T08:06:20;9.70;;;5.68;;
10309;SDS011;5200;43.236;27.986;2023-02-15T08:08:47;11.38;;;6.68;;
10309;SDS011;5200;43.236;27.986;2023-02-15T08:11:15;11.70;;;6.80;;
10309;SDS011;5200;43.236;27.986;2023-02-15T08:13:58;6.05;;;4.90;;
10309;SDS011;5200;43.236;27.986;2023-02-15T08:16:30;8.68;;;5.82;;
10309;SDS011;5200;43.236;27.986;2023-02-15T08:19:00;9.88;;;6.15;;
10309;SDS011;5200;43.236;27.986;2023-02-15T08:21:29;7.65;;;4.78;;
10309;SDS011;5200;43.236;27.986;2023-02-15T08:23:56;11.57;;;6.95;;
10309;SDS011;5200;43.236;27.986;2023-02-15T08:26:24;7.35;;;4.93;;
10309;SDS011;5200;43.236;27.986;2023-02-15T08:28:52;7.50;;;5.85;;
10309;SDS011;5200;43.236;27.986;2023-02-15T08:31:20;6.35;;;4.10;;
10309;SDS011;5200;43.236;27.986;2023-02-15T08:33:49;11.30;;;6.40;;
10309;SDS011;5200;43.236;27.986;2023-02-15T08:36:17;7.57;;;5.53;;
10309;SDS011;5200;43.236;27.986;2023-02-15T08:38:45;7.72;;;5.88;;
10309;SDS011;5200;43.236;27.986;2023-02-15T08:41:13;11.75;;;6.45;;
10309;SDS011;5200;43.236;27.986;2023-02-15T08:43:41;10.05;;;6.35;;
10309;SDS011;5200;43.236;27.986;2023-02-15T08:46:09;9.95;;;5.28;;
10309;SDS011;5200;43.236;27.986;2023-02-15T08:48:38;11.50;;;6.65;;
10309;SDS011;5200;43.236;27.986;2023-02-15T08:51:08;13.13;;;7.35;;
10309;SDS011;5200;43.236;27.986;2023-02-15T08:53:37;12.27;;;6.65;;
10309;SDS011;5200;43.236;27.986;2023-02-15T08:56:05;7.43;;;5.53;;
10309;SDS011;5200;43.236;27.986;2023-02-15T08:58:33;7.40;;;5.20;;
10309;SDS011;5200;43.236;27.986;2023-02-15T09:01:01;8.90;;;6.13;;
10309;SDS011;5200;43.236;27.986;2023-02-15T09:03:34;9.52;;;6.07;;
10309;SDS011;5200;43.236;27.986;2023-02-15T09:06:01;8.70;;;4.65;;
10309;SDS011;5200;43.236;27.986;2023-02-15T09:08:29;7.57;;;4.93;;
10309;SDS011;5200;43.236;27.986;2023-02-15T09:11:04;10.18;;;6.30;;
10309;SDS011;5200;43.236;27.986;2023-02-15T09:13:32;8.20;;;5.65;;
10309;SDS011;5200;43.236;27.986;2023-02-15T09:15:59;10.63;;;6.53;;
10309;SDS011;5200;43.236;27.986;2023-02-15T09:18:28;13.93;;;6.70;;
10309;SDS011;5200;43.236;27.986;2023-02-15T09:20:56;12.68;;;6.63;;
10309;SDS011;5200;43.236;27.986;2023-02-15T09:23:22;10.38;;;6.35;;
10309;SDS011;5200;43.236;27.986;2023-02-15T09:25:51;9.85;;;6.07;;
10309;SDS011;5200;43.236;27.986;2023-02-15T09:28:17;11.23;;;6.20;;
10309;SDS011;5200;43.236;27.986;2023-02-15T09:30:47;9.30;;;6.45;;
10309;SDS011;5200;43.236;27.986;2023-02-15T09:33:14;6.70;;;5.38;;
10309;SDS011;5200;43.236;27.986;2023-02-15T09:35:40;5.13;;;4.18;;
10309;SDS011;5200;43.236;27.986;2023-02-15T09:38:07;15.10;;;6.07;;
10309;SDS011;5200;43.236;27.986;2023-02-15T09:40:38;11.00;;;5.78;;
10309;SDS011;5200;43.236;27.986;2023-02-15T09:43:20;8.25;;;5.32;;
10309;SDS011;5200;43.236;27.986;2023-02-15T09:46:00;8.02;;;5.25;;
10309;SDS011;5200;43.236;27.986;2023-02-15T09:48:42;10.10;;;5.13;;
10309;SDS011;5200;43.236;27.986;2023-02-15T09:51:19;9.50;;;5.28;;
10309;SDS011;5200;43.236;27.986;2023-02-15T09:54:06;5.85;;;4.95;;
10309;SDS011;5200;43.236;27.986;2023-02-15T09:56:44;11.57;;;5.80;;
10309;SDS011;5200;43.236;27.986;2023-02-15T09:59:17;8.90;;;5.90;;
10309;SDS011;5200;43.236;27.986;2023-02-15T10:01:54;8.48;;;4.95;;
10309;SDS011;5200;43.236;27.986;2023-02-15T10:04:40;12.05;;;6.35;;
10309;SDS011;5200;43.236;27.986;2023-02-15T10:07:19;6.53;;;4.80;;
10309;SDS011;5200;43.236;27.986;2023-02-15T10:10:00;5.53;;;4.78;;
10309;SDS011;5200;43.236;27.986;2023-02-15T10:12:43;5.78;;;4.80;;
10309;SDS011;5200;43.236;27.986;2023-02-15T10:15:23;8.15;;;5.38;;
10309;SDS011;5200;43.236;27.986;2023-02-15T10:18:04;9.98;;;5.53;;
10309;SDS011;5200;43.236;27.986;2023-02-15T10:20:41;7.75;;;5.88;;
10309;SDS011;5200;43.236;27.986;2023-02-15T10:23:22;8.93;;;5.47;;
10309;SDS011;5200;43.236;27.986;2023-02-15T10:26:05;7.20;;;5.68;;
10309;SDS011;5200;43.236;27.986;2023-02-15T10:28:41;12.98;;;6.07;;
10309;SDS011;5200;43.236;27.986;2023-02-15T10:31:15;8.75;;;5.57;;
10309;SDS011;5200;43.236;27.986;2023-02-15T10:33:51;10.13;;;7.63;;
10309;SDS011;5200;43.236;27.986;2023-02-15T10:36:29;11.60;;;7.07;;
10309;SDS011;5200;43.236;27.986;2023-02-15T10:39:06;10.85;;;6.97;;
10309;SDS011;5200;43.236;27.986;2023-02-15T10:41:44;8.20;;;6.38;;
10309;SDS011;5200;43.236;27.986;2023-02-15T10:44:26;12.60;;;6.70;;
10309;SDS011;5200;43.236;27.986;2023-02-15T10:52:56;14.00;;;6.82;;
10309;SDS011;5200;43.236;27.986;2023-02-15T10:55:37;13.38;;;7.28;;
10309;SDS011;5200;43.236;27.986;2023-02-15T10:58:15;11.68;;;7.47;;
10309;SDS011;5200;43.236;27.986;2023-02-15T11:00:50;10.68;;;6.50;;
10309;SDS011;5200;43.236;27.986;2023-02-15T11:03:33;10.20;;;7.25;;
10309;SDS011;5200;43.236;27.986;2023-02-15T11:06:10;12.02;;;7.90;;
10309;SDS011;5200;43.236;27.986;2023-02-15T11:08:41;13.25;;;7.72;;
10309;SDS011;5200;43.236;27.986;2023-02-15T11:11:12;10.60;;;6.80;;
10309;SDS011;5200;43.236;27.986;2023-02-15T11:13:46;11.15;;;7.20;;
10309;SDS011;5200;43.236;27.986;2023-02-15T11:16:17;11.15;;;7.50;;
10309;SDS011;5200;43.236;27.986;2023-02-15T11:18:50;10.65;;;6.20;;
10309;SDS011;5200;43.236;27.986;2023-02-15T11:21:21;16.00;;;6.22;;
10309;SDS011;5200;43.236;27.986;2023-02-15T11:23:50;8.52;;;6.57;;
10309;SDS011;5200;43.236;27.986;2023-02-15T11:26:19;10.90;;;6.60;;
10309;SDS011;5200;43.236;27.986;2023-02-15T11:28:53;9.50;;;6.80;;
10309;SDS011;5200;43.236;27.986;2023-02-15T11:31:24;13.02;;;6.97;;
10309;SDS011;5200;43.236;27.986;2023-02-15T11:33:54;11.02;;;7.88;;
10309;SDS011;5200;43.236;27.986;2023-02-15T11:36:25;11.38;;;7.03;;
10309;SDS011;5200;43.236;27.986;2023-02-15T11:38:56;8.60;;;6.10;;
10309;SDS011;5200;43.236;27.986;2023-02-15T11:41:29;12.52;;;7.25;;
10309;SDS011;5200;43.236;27.986;2023-02-15T11:44:03;8.75;;;7.40;;
10309;SDS011;5200;43.236;27.986;2023-02-15T11:46:37;12.55;;;6.78;;
10309;SDS011;5200;43.236;27.986;2023-02-15T11:49:07;10.35;;;6.90;;
10309;SDS011;5200;43.236;27.986;2023-02-15T11:51:47;11.35;;;7.18;;
10309;SDS011;5200;43.236;27.986;2023-02-15T11:54:15;11.32;;;8.05;;
10309;SDS011;5200;43.236;27.986;2023-02-15T11:56:43;12.55;;;7.13;;
10309;SDS011;5200;43.236;27.986;2023-02-15T11:59:11;9.93;;;6.70;;
10309;SDS011;5200;43.236;27.986;2023-02-15T12:01:45;9.15;;;6.25;;
10309;SDS011;5200;43.236;27.986;2023-02-15T12:04:16;13.10;;;6.70;;
10309;SDS011;5200;43.236;27.986;2023-02-15T12:06:51;10.65;;;7.50;;
10309;SDS011;5200;43.236;27.986;2023-02-15T12:09:23;13.88;;;7.95;;
10309;SDS011;5200;43.236;27.986;2023-02-15T12:14:46;19.35;;;8.18;;
10309;SDS011;5200;43.236;27.986;2023-02-15T12:17:14;11.25;;;7.45;;
10309;SDS011;5200;43.236;27.986;2023-02-15T12:19:44;10.27;;;7.47;;
10309;SDS011;5200;43.236;27.986;2023-02-15T12:22:18;12.18;;;6.80;;
10309;SDS011;5200;43.236;27.986;2023-02-15T12:24:48;10.30;;;7.78;;
10309;SDS011;5200;43.236;27.986;2023-02-15T12:27:19;12.20;;;7.22;;
10309;SDS011;5200;43.236;27.986;2023-02-15T12:29:48;10.30;;;7.82;;
10309;SDS011;5200;43.236;27.986;2023-02-15T12:32:17;11.95;;;7.88;;
10309;SDS011;5200;43.236;27.986;2023-02-15T12:34:49;11.63;;;7.43;;
10309;SDS011;5200;43.236;27.986;2023-02-15T12:37:19;12.00;;;8.55;;
10309;SDS011;5200;43.236;27.986;2023-02-15T12:39:53;11.55;;;8.25;;
10309;SDS011;5200;43.236;27.986;2023-02-15T12:42:22;12.35;;;7.53;;
10309;SDS011;5200;43.236;27.986;2023-02-15T12:44:59;11.05;;;8.00;;
10309;SDS011;5200;43.236;27.986;2023-02-15T12:47:28;12.23;;;8.43;;
10309;SDS011;5200;43.236;27.986;2023-02-15T12:53:05;12.60;;;8.30;;
10309;SDS011;5200;43.236;27.986;2023-02-15T12:55:34;11.30;;;8.73;;
10309;SDS011;5200;43.236;27.986;2023-02-15T12:58:05;12.80;;;9.10;;
10309;SDS011;5200;43.236;27.986;2023-02-15T13:00:33;17.92;;;11.30;;
10309;SDS011;5200;43.236;27.986;2023-02-15T13:03:00;16.95;;;10.65;;
10309;SDS011;5200;43.236;27.986;2023-02-15T13:05:31;12.82;;;8.88;;
10309;SDS011;5200;43.236;27.986;2023-02-15T13:08:01;11.50;;;7.72;;
10309;SDS011;5200;43.236;27.986;2023-02-15T13:10:31;12.90;;;9.25;;
10309;SDS011;5200;43.236;27.986;2023-02-15T13:13:01;13.02;;;8.52;;
10309;SDS011;5200;43.236;27.986;2023-02-15T13:15:36;12.65;;;8.75;;
10309;SDS011;5200;43.236;27.986;2023-02-15T13:18:05;13.13;;;9.40;;
10309;SDS011;5200;43.236;27.986;2023-02-15T13:20:40;15.48;;;8.52;;
10309;SDS011;5200;43.236;27.986;2023-02-15T13:23:13;12.05;;;8.50;;
10309;SDS011;5200;43.236;27.986;2023-02-15T13:25:50;12.55;;;8.23;;
10309;SDS011;5200;43.236;27.986;2023-02-15T13:28:18;12.30;;;7.53;;
10309;SDS011;5200;43.236;27.986;2023-02-15T13:30:49;11.82;;;8.10;;
10309;SDS011;5200;43.236;27.986;2023-02-15T13:33:18;11.43;;;8.15;;
10309;SDS011;5200;43.236;27.986;2023-02-15T13:35:56;14.73;;;9.60;;
10309;SDS011;5200;43.236;27.986;2023-02-15T13:41:23;16.42;;;9.43;;
10309;SDS011;5200;43.236;27.986;2023-02-15T13:43:58;14.98;;;10.15;;
10309;SDS011;5200;43.236;27.986;2023-02-15T13:46:38;14.20;;;9.43;;
10309;SDS011;5200;43.236;27.986;2023-02-15T13:49:14;16.17;;;10.30;;
10309;SDS011;5200;43.236;27.986;2023-02-15T13:51:51;17.45;;;10.40;;
10309;SDS011;5200;43.236;27.986;2023-02-15T13:54:33;15.27;;;9.23;;
10309;SDS011;5200;43.236;27.986;2023-02-15T13:57:19;15.90;;;9.88;;
10309;SDS011;5200;43.236;27.986;2023-02-15T14:00:01;14.75;;;10.13;;
10309;SDS011;5200;43.236;27.986;2023-02-15T14:02:41;13.98;;;9.32;;
10309;SDS011;5200;43.236;27.986;2023-02-15T14:05:27;13.90;;;9.25;;
10309;SDS011;5200;43.236;27.986;2023-02-15T14:08:08;15.55;;;9.60;;
10309;SDS011;5200;43.236;27.986;2023-02-15T14:10:44;14.88;;;10.05;;
10309;SDS011;5200;43.236;27.986;2023-02-15T14:13:27;15.98;;;9.20;;
10309;SDS011;5200;43.236;27.986;2023-02-15T14:16:08;14.45;;;9.57;;
10309;SDS011;5200;43.236;27.986;2023-02-15T14:18:40;14.35;;;9.75;;
10309;SDS011;5200;43.236;27.986;2023-02-15T14:21:13;11.75;;;8.75;;
10309;SDS011;5200;43.236;27.986;2023-02-15T14:23:50;13.02;;;9.02;;
10309;SDS011;5200;43.236;27.986;2023-02-15T14:26:29;11.13;;;8.27;;
10309;SDS011;5200;43.236;27.986;2023-02-15T14:29:04;12.73;;;9.45;;
10309;SDS011;5200;43.236;27.986;2023-02-15T14:31:41;17.23;;;9.52;;
10309;SDS011;5200;43.236;27.986;2023-02-15T14:34:16;13.57;;;8.23;;
10309;SDS011;5200;43.236;27.986;2023-02-15T14:36:47;12.65;;;9.23;;
10309;SDS011;5200;43.236;27.986;2023-02-15T14:39:20;11.30;;;7.72;;
10309;SDS011;5200;43.236;27.986;2023-02-15T14:42:14;13.10;;;8.27;;
10309;SDS011;5200;43.236;27.986;2023-02-15T14:44:48;15.18;;;9.25;;
10309;SDS011;5200;43.236;27.986;2023-02-15T14:47:25;19.77;;;7.93;;
10309;SDS011;5200;43.236;27.986;2023-02-15T14:49:58;14.55;;;7.93;;
10309;SDS011;5200;43.236;27.986;2023-02-15T14:52:25;12.13;;;8.23;;
10309;SDS011;5200;43.236;27.986;2023-02-15T14:54:57;12.77;;;8.07;;
10309;SDS011;5200;43.236;27.986;2023-02-15T14:57:25;11.75;;;7.65;;
10309;SDS011;5200;43.236;27.986;2023-02-15T14:59:59;12.18;;;8.50;;
10309;SDS011;5200;43.236;27.986;2023-02-15T15:02:42;12.50;;;8.48;;
10309;SDS011;5200;43.236;27.986;2023-02-15T15:05:16;12.38;;;8.95;;
10309;SDS011;5200;43.236;27.986;2023-02-15T15:07:46;13.95;;;9.25;;
10309;SDS011;5200;43.236;27.986;2023-02-15T15:10:36;14.93;;;9.02;;
10309;SDS011;5200;43.236;27.986;2023-02-15T15:16:24;14.48;;;9.65;;
10309;SDS011;5200;43.236;27.986;2023-02-15T15:18:56;12.90;;;9.02;;
10309;SDS011;5200;43.236;27.986;2023-02-15T15:33:18;29.80;;;13.23;;
10309;SDS011;5200;43.236;27.986;2023-02-15T15:36:02;21.08;;;11.45;;